Other Surface Observations
Issued by NWS Great Falls, MT

Home | Current Version | Previous Version | Text Only | Print | Product List | Glossary On
Versions: 1 2 3 4 5 6 7 8 9 10 11 12 13 14 15 16 17 18 19 20 21 22 23 24 25 26 27 28 29 30 31 32 33 34 35 36 37 38 39 40 41 42 43 44 45 46 47 48 49 50
000
SXUS55 KTFX 242106
OSOTFX
AREA AWOS OBSERVATIONS
NATIONAL WEATHER SERVICE GREAT FALLS MT
0305 PM MDT THU JUL 24 2014

METAR KPWD 242100Z AUTO 10008KT 10SM 28/18 A2973 RMK PLENTYWOOD
METAR KPO1 242100Z AUTO 24009G15KT 32/17 A2968 RMK POPLAR
METAR K1S3 242100Z AUTO 28008G15KT 10SM 37/10 A2967 RMK FORSYTH
METAR KS71 242100Z AUTO 26021G38KT 9SM 16/10 A2990 RMK CHINOOK
METAR K79S 242100Z AUTO 27012G18KT 10SM 21/06 A2993 RMK FORT BENTON
METAR KEKS 242100Z AUTO 27018G23KT 10SM 28/M06 A3006 RMK ENNIS
METAR K38S 242100Z AUTO 27013G17KT 10SM 21/M02 A3011 RMK DEER LODGE
METAR K3U3 242100Z AUTO 27018G26KT 21/M07 A3006 RMK ANACONDA
METAR K6S5 242100Z AUTO 26004KT 10SM 21/01 A3011 RMK HAMILTON
METAR KS59 242100Z AUTO 17008G19KT 10SM 15/05 A3010 RMK LIBBY
METAR K88M 242100Z AUTO 17012G15KT 10SM 16/04 A3008 RMK EUREKA



USA.gov is the U.S. government's official web portal to all federal, state and local government web resources and services.